createdAt,value
2016-02-18T00:00:44.436Z,1007.05
2016-02-18T00:01:44.500Z,1007.07
2016-02-18T00:02:44.534Z,1007.06
2016-02-18T00:03:44.583Z,1007.09
2016-02-18T00:04:44.638Z,1007.11
2016-02-18T00:05:44.687Z,1007.08
2016-02-18T00:06:44.737Z,1007.07
2016-02-18T00:07:44.802Z,1007.09
2016-02-18T00:08:44.836Z,1007.16
2016-02-18T00:09:44.885Z,1007.12
2016-02-18T00:10:44.935Z,1007.14
2016-02-18T00:11:44.985Z,1007.16
2016-02-18T00:12:45.034Z,1007.22
2016-02-18T00:13:45.083Z,1007.22
2016-02-18T00:14:45.134Z,1007.2
2016-02-18T00:15:45.183Z,1007.23
2016-02-18T00:16:45.248Z,1007.22
2016-02-18T00:17:45.282Z,1007.21
2016-02-18T00:18:45.331Z,1007.24
2016-02-18T00:19:45.380Z,1007.24
2016-02-18T00:20:45.431Z,1007.26
2016-02-18T00:21:45.480Z,1007.24
2016-02-18T00:22:45.530Z,1007.23
2016-02-18T00:23:45.579Z,1007.2
2016-02-18T00:24:45.629Z,1007.21
2016-02-18T00:25:45.678Z,1007.18
2016-02-18T00:26:45.727Z,1007.17
2016-02-18T00:27:45.777Z,1007.15
2016-02-18T00:28:45.827Z,1007.12
2016-02-18T00:29:45.876Z,1007.16
2016-02-18T00:30:45.927Z,1007.13
2016-02-18T00:31:45.976Z,1007.16
2016-02-18T00:32:46.026Z,1007.19
2016-02-18T00:33:46.074Z,1007.19
2016-02-18T00:34:46.124Z,1007.13
2016-02-18T00:35:46.174Z,1007.17
2016-02-18T00:36:46.212Z,1007.16
2016-02-18T00:37:46.262Z,1007.11
2016-02-18T00:38:46.312Z,1007.14
2016-02-18T00:39:46.361Z,1007.12
2016-02-18T00:40:46.411Z,1007.15
2016-02-18T00:41:46.461Z,1007.16
2016-02-18T00:42:46.510Z,1007.18
2016-02-18T00:43:46.560Z,1007.19
2016-02-18T00:44:46.609Z,1007.22
2016-02-18T00:45:46.659Z,1007.22
2016-02-18T00:46:46.708Z,1007.23
2016-02-18T00:47:46.758Z,1007.23
2016-02-18T00:48:46.808Z,1007.2
2016-02-18T00:49:46.857Z,1007.19
2016-02-18T00:50:46.907Z,1007.21
2016-02-18T00:51:46.955Z,1007.18
2016-02-18T00:52:47.005Z,1007.16
2016-02-18T00:53:47.056Z,1007.17
2016-02-18T00:54:47.105Z,1007.19
2016-02-18T00:55:47.155Z,1007.13
2016-02-18T00:56:47.204Z,1007.1
2016-02-18T00:57:47.254Z,1007.17
2016-02-18T00:58:47.303Z,1007.14
2016-02-18T00:59:47.352Z,1007.15
2016-02-18T01:00:47.402Z,1007.12
2016-02-18T01:01:47.452Z,1007.17
2016-02-18T01:02:47.501Z,1007.09
2016-02-18T01:03:47.552Z,1007.14
2016-02-18T01:04:47.601Z,1007.16
2016-02-18T01:05:47.651Z,1007.13
2016-02-18T01:06:47.704Z,1007.15
2016-02-18T01:07:47.754Z,1007.11
2016-02-18T01:08:47.804Z,1007.11
2016-02-18T01:09:47.853Z,1007.15
2016-02-18T01:10:47.903Z,1007.13
2016-02-18T01:11:47.953Z,1007.1
2016-02-18T01:12:48.002Z,1007.11
2016-02-18T01:13:48.052Z,1007.12
2016-02-18T01:14:48.101Z,1007.18
2016-02-18T01:15:48.150Z,1007.16
2016-02-18T01:16:48.185Z,1007.18
2016-02-18T01:17:48.234Z,1007.15
2016-02-18T01:18:48.300Z,1007.16
2016-02-18T01:19:48.333Z,1007.17
2016-02-18T01:20:48.383Z,1007.15
2016-02-18T01:21:48.449Z,1007.13
2016-02-18T01:22:48.482Z,1007.11
2016-02-18T01:23:48.532Z,1007.16
2016-02-18T01:24:48.582Z,1007.14
2016-02-18T01:25:48.630Z,1007.11
2016-02-18T01:26:48.695Z,1007.16
2016-02-18T01:27:48.729Z,1007.11
2016-02-18T01:28:48.779Z,1007.13
2016-02-18T01:29:48.829Z,1007.12
2016-02-18T01:30:48.879Z,1007.12
2016-02-18T01:31:48.928Z,1007.12
2016-02-18T01:32:48.978Z,1007.12
2016-02-18T01:33:49.026Z,1007.08
2016-02-18T01:34:49.077Z,1007.13
2016-02-18T01:35:49.126Z,1007.09
2016-02-18T01:36:49.175Z,1007.12
2016-02-18T01:37:49.225Z,1007.05
2016-02-18T01:38:49.275Z,1007.08
2016-02-18T01:39:49.325Z,1007.05
2016-02-18T01:40:49.375Z,1007.06
2016-02-18T01:41:49.423Z,1007.01
2016-02-18T01:42:49.473Z,1007.07
2016-02-18T01:43:49.522Z,1007.06
2016-02-18T01:44:49.573Z,1007
2016-02-18T01:45:49.622Z,1006.98
2016-02-18T01:46:49.671Z,1006.96
2016-02-18T01:47:49.721Z,1006.93
2016-02-18T01:48:49.771Z,1006.89
2016-02-18T01:49:49.820Z,1006.86
2016-02-18T01:50:49.870Z,1006.88
2016-02-18T01:51:49.919Z,1006.86
2016-02-18T01:52:49.969Z,1006.83
2016-02-18T01:53:50.018Z,1006.83
2016-02-18T01:54:50.069Z,1006.79
2016-02-18T01:55:50.118Z,1006.82
2016-02-18T01:56:50.167Z,1006.83
2016-02-18T01:57:50.216Z,1006.82
2016-02-18T01:58:50.266Z,1006.83
2016-02-18T01:59:50.315Z,1006.86
2016-02-18T02:00:50.365Z,1006.8
2016-02-18T02:01:50.413Z,1006.82
2016-02-18T02:02:50.450Z,1006.84
2016-02-18T02:03:50.487Z,1006.78
2016-02-18T02:04:50.538Z,1006.84
2016-02-18T02:05:50.560Z,1006.81
2016-02-18T02:06:50.598Z,1006.79
2016-02-18T02:07:50.644Z,1006.81
2016-02-18T02:08:50.689Z,1006.79
2016-02-18T02:09:50.733Z,1006.77
2016-02-18T02:10:50.779Z,1006.79
2016-02-18T02:11:50.824Z,1006.76
2016-02-18T02:12:50.872Z,1006.78
2016-02-18T02:13:50.920Z,1006.79
2016-02-18T02:14:50.968Z,1006.8
2016-02-18T02:15:51.016Z,1006.79
2016-02-18T02:16:51.065Z,1006.78
2016-02-18T02:17:51.113Z,1006.74
2016-02-18T02:18:51.163Z,1006.77
2016-02-18T02:19:51.195Z,1006.8
2016-02-18T02:20:51.260Z,1006.78
2016-02-18T02:21:51.308Z,1006.8
2016-02-18T02:22:51.358Z,1006.82
2016-02-18T02:23:51.393Z,1006.83
2016-02-18T02:24:51.441Z,1006.87
2016-02-18T02:25:51.507Z,1006.84
2016-02-18T02:26:51.541Z,1006.85
2016-02-18T02:27:51.590Z,1006.82
2016-02-18T02:28:51.671Z,1006.87
2016-02-18T02:29:51.690Z,1006.84
2016-02-18T02:30:51.739Z,1006.81
2016-02-18T02:31:51.789Z,1006.91
2016-02-18T02:32:51.838Z,1006.9
2016-02-18T02:33:51.887Z,1006.89
2016-02-18T02:34:51.938Z,1006.88
2016-02-18T02:35:51.987Z,1006.94
2016-02-18T02:36:52.037Z,1006.92
2016-02-18T02:37:52.086Z,1006.88
2016-02-18T02:38:52.136Z,1006.92
2016-02-18T02:39:52.201Z,1006.93
2016-02-18T02:40:52.235Z,1006.89
2016-02-18T02:41:52.284Z,1006.9
2016-02-18T02:42:52.350Z,1006.92
2016-02-18T02:43:52.383Z,1006.88
2016-02-18T02:44:52.433Z,1006.87
2016-02-18T02:45:52.483Z,1006.82
2016-02-18T02:46:52.532Z,1006.87
2016-02-18T02:47:52.582Z,1006.87
2016-02-18T02:48:52.631Z,1006.89
2016-02-18T02:49:52.681Z,1006.87
2016-02-18T02:50:52.730Z,1006.85
2016-02-18T02:51:52.780Z,1006.91
2016-02-18T02:52:52.829Z,1006.89
2016-02-18T02:53:52.879Z,1006.9
2016-02-18T02:54:52.929Z,1006.89
2016-02-18T02:55:52.979Z,1006.85
2016-02-18T02:56:53.028Z,1006.88
2016-02-18T02:57:53.077Z,1006.85
2016-02-18T02:58:53.127Z,1006.87
2016-02-18T02:59:53.177Z,1006.87
2016-02-18T03:00:53.227Z,1006.85
2016-02-18T03:01:53.276Z,1006.85
2016-02-18T03:02:53.326Z,1006.83
2016-02-18T03:03:53.376Z,1006.87
2016-02-18T03:04:53.424Z,1006.86
2016-02-18T03:05:53.474Z,1006.87
2016-02-18T03:06:53.524Z,1006.84
2016-02-18T03:07:53.574Z,1006.82
2016-02-18T03:08:53.623Z,1006.84
2016-02-18T03:09:53.673Z,1006.83
2016-02-18T03:10:53.723Z,1006.84
2016-02-18T03:11:53.772Z,1006.85
2016-02-18T03:12:53.820Z,1006.8
2016-02-18T03:13:53.870Z,1006.81
2016-02-18T03:14:53.920Z,1006.83
2016-02-18T03:15:53.970Z,1006.77
2016-02-18T03:16:54.019Z,1006.84
2016-02-18T03:17:54.069Z,1006.82
2016-02-18T03:18:54.102Z,1006.85
2016-02-18T03:19:54.168Z,1006.83
2016-02-18T03:20:54.217Z,1006.85
2016-02-18T03:21:54.252Z,1006.85
2016-02-18T03:22:54.317Z,1006.85
2016-02-18T03:23:54.366Z,1006.85
2016-02-18T03:24:54.400Z,1006.87
2016-02-18T03:25:54.466Z,1006.87
2016-02-18T03:26:54.499Z,1006.89
2016-02-18T03:27:54.549Z,1006.85
2016-02-18T03:28:54.614Z,1006.87
2016-02-18T03:29:54.649Z,1006.88
2016-02-18T03:30:54.699Z,1006.84
2016-02-18T03:31:54.747Z,1006.87
2016-02-18T03:32:54.797Z,1006.83
2016-02-18T03:33:54.847Z,1006.82
2016-02-18T03:34:54.896Z,1006.81
2016-02-18T03:35:54.946Z,1006.8
2016-02-18T03:36:54.996Z,1006.76
2016-02-18T03:37:55.045Z,1006.76
2016-02-18T03:38:55.095Z,1006.8
2016-02-18T03:39:55.144Z,1006.77
2016-02-18T03:40:55.194Z,1006.77
2016-02-18T03:41:55.243Z,1006.8
2016-02-18T03:42:55.293Z,1006.77
2016-02-18T03:43:55.342Z,1006.79
2016-02-18T03:44:55.392Z,1006.81
2016-02-18T03:45:55.457Z,1006.78
2016-02-18T03:46:55.492Z,1006.79
2016-02-18T03:47:55.540Z,1006.8
2016-02-18T03:48:55.590Z,1006.77
2016-02-18T03:49:55.639Z,1006.79
2016-02-18T03:50:55.689Z,1006.77
2016-02-18T03:51:55.738Z,1006.8
2016-02-18T03:52:55.789Z,1006.77
2016-02-18T03:53:55.838Z,1006.79
2016-02-18T03:54:55.888Z,1006.85
2016-02-18T03:55:55.937Z,1006.78
2016-02-18T03:56:55.986Z,1006.79
2016-02-18T03:57:56.036Z,1006.79
2016-02-18T03:58:56.085Z,1006.82
2016-02-18T03:59:56.135Z,1006.8
2016-02-18T04:00:56.185Z,1006.83
2016-02-18T04:01:56.234Z,1006.78
2016-02-18T04:02:56.284Z,1006.8
2016-02-18T04:03:56.350Z,1006.79
2016-02-18T04:04:56.383Z,1006.77
2016-02-18T04:05:56.433Z,1006.8
2016-02-18T04:06:56.483Z,1006.81
2016-02-18T04:07:56.533Z,1006.75
2016-02-18T04:08:56.582Z,1006.8
2016-02-18T04:09:56.632Z,1006.85
2016-02-18T04:10:56.682Z,1006.81
2016-02-18T04:11:56.716Z,1006.81
2016-02-18T04:12:56.780Z,1006.85
2016-02-18T04:13:56.830Z,1006.87
2016-02-18T04:14:56.863Z,1006.87
2016-02-18T04:15:56.929Z,1006.84
2016-02-18T04:16:56.962Z,1006.84
2016-02-18T04:17:57.013Z,1006.82
2016-02-18T04:18:57.079Z,1006.85
2016-02-18T04:19:57.112Z,1006.85
2016-02-18T04:20:57.162Z,1006.83
2016-02-18T04:21:57.226Z,1006.81
2016-02-18T04:22:57.260Z,1006.8
2016-02-18T04:23:57.309Z,1006.86
2016-02-18T04:24:57.359Z,1006.87
2016-02-18T04:25:57.409Z,1006.84
2016-02-18T04:26:57.459Z,1006.87
2016-02-18T04:27:57.509Z,1006.85
2016-02-18T04:28:57.558Z,1006.87
2016-02-18T04:29:57.608Z,1006.87
2016-02-18T04:30:57.656Z,1006.82
2016-02-18T04:31:57.706Z,1006.83
2016-02-18T04:32:57.755Z,1006.81
2016-02-18T04:33:57.806Z,1006.83
2016-02-18T04:34:57.856Z,1006.83
2016-02-18T04:35:57.905Z,1006.84
2016-02-18T04:36:57.955Z,1006.84
2016-02-18T04:37:58.004Z,1006.86
2016-02-18T04:38:58.053Z,1006.81
2016-02-18T04:39:58.102Z,1006.84
2016-02-18T04:40:58.152Z,1006.84
2016-02-18T04:41:58.203Z,1006.86
2016-02-18T04:42:58.251Z,1006.87
2016-02-18T04:43:58.302Z,1006.88
2016-02-18T04:44:58.352Z,1006.86
2016-02-18T04:45:58.401Z,1006.87
2016-02-18T04:46:58.449Z,1006.89
2016-02-18T04:47:58.499Z,1006.88
2016-02-18T04:48:58.549Z,1006.87
2016-02-18T04:49:58.598Z,1006.89
2016-02-18T04:50:58.648Z,1006.92
2016-02-18T04:51:58.698Z,1006.95
2016-02-18T04:52:58.748Z,1006.96
2016-02-18T04:53:58.798Z,1006.96
2016-02-18T04:54:58.846Z,1006.96
2016-02-18T04:55:58.896Z,1006.94
2016-02-18T04:56:58.930Z,1006.92
2016-02-18T04:57:58.995Z,1006.94
2016-02-18T04:58:59.044Z,1006.95
2016-02-18T04:59:59.094Z,1006.93
2016-02-18T05:00:59.145Z,1006.96
2016-02-18T05:01:59.194Z,1006.97
2016-02-18T05:02:59.234Z,1006.98
2016-02-18T05:03:59.292Z,1006.99
2016-02-18T05:04:59.533Z,1007.04
2016-02-18T05:05:59.442Z,1007.02
2016-02-18T05:06:59.428Z,1007.04
2016-02-18T05:07:59.477Z,1007.02
2016-02-18T05:08:59.527Z,1007.06
2016-02-18T05:09:59.578Z,1007.07
2016-02-18T05:10:59.627Z,1007.09
2016-02-18T05:11:59.677Z,1007.09
2016-02-18T05:12:59.727Z,1007.13
2016-02-18T05:13:59.775Z,1007.12
2016-02-18T05:14:59.830Z,1007.1
2016-02-18T05:15:59.879Z,1007.14
2016-02-18T05:16:59.913Z,1007.12
2016-02-18T05:17:59.962Z,1007.15
2016-02-18T05:19:00.013Z,1007.14
2016-02-18T05:20:00.063Z,1007.16
2016-02-18T05:21:00.112Z,1007.13
2016-02-18T05:22:00.162Z,1007.15
2016-02-18T05:23:00.211Z,1007.18
2016-02-18T05:24:00.260Z,1007.18
2016-02-18T05:25:00.309Z,1007.19
2016-02-18T05:26:00.359Z,1007.2
2016-02-18T05:27:00.409Z,1007.19
2016-02-18T05:28:00.459Z,1007.22
2016-02-18T05:29:00.509Z,1007.19
2016-02-18T05:30:00.558Z,1007.24
2016-02-18T05:31:00.608Z,1007.24
2016-02-18T05:32:00.656Z,1007.26
2016-02-18T05:33:00.706Z,1007.23
2016-02-18T05:34:00.755Z,1007.24
2016-02-18T05:35:00.805Z,1007.26
2016-02-18T05:36:00.856Z,1007.21
2016-02-18T05:37:00.905Z,1007.21
2016-02-18T05:38:00.955Z,1007.21
2016-02-18T05:39:01.004Z,1007.2
2016-02-18T05:40:01.053Z,1007.23
2016-02-18T05:41:01.103Z,1007.2
2016-02-18T05:42:01.152Z,1007.21
2016-02-18T05:43:01.202Z,1007.23
2016-02-18T05:44:01.251Z,1007.2
2016-02-18T05:45:01.301Z,1007.23
2016-02-18T05:46:01.352Z,1007.22
2016-02-18T05:47:01.385Z,1007.22
2016-02-18T05:48:01.450Z,1007.21
2016-02-18T05:49:01.484Z,1007.24
2016-02-18T05:50:01.534Z,1007.25
2016-02-18T05:51:01.598Z,1007.29
2016-02-18T05:52:01.632Z,1007.34
2016-02-18T05:53:01.682Z,1007.27
2016-02-18T05:54:01.748Z,1007.29
2016-02-18T05:55:01.782Z,1007.3
2016-02-18T05:56:01.831Z,1007.33
2016-02-18T05:57:01.881Z,1007.27
2016-02-18T05:58:01.930Z,1007.28
2016-02-18T05:59:01.995Z,1007.27
2016-02-18T06:00:02.029Z,1007.25
2016-02-18T06:01:02.078Z,1007.33
2016-02-18T06:02:02.129Z,1007.34
2016-02-18T06:03:02.178Z,1007.38
2016-02-18T06:04:02.228Z,1007.39
2016-02-18T06:05:02.291Z,1007.4
2016-02-18T06:06:02.330Z,1007.36
2016-02-18T06:07:02.380Z,1007.41
2016-02-18T06:08:02.429Z,1007.41
2016-02-18T06:09:02.479Z,1007.39
2016-02-18T06:10:02.528Z,1007.39
2016-02-18T06:11:02.578Z,1007.37
2016-02-18T06:12:02.629Z,1007.41
2016-02-18T06:13:02.678Z,1007.45
2016-02-18T06:14:02.727Z,1007.4
2016-02-18T06:15:02.761Z,1007.41
2016-02-18T06:16:02.826Z,1007.44
2016-02-18T06:17:02.875Z,1007.45
2016-02-18T06:18:02.909Z,1007.44
2016-02-18T06:19:02.975Z,1007.48
2016-02-18T06:20:03.009Z,1007.49
2016-02-18T06:21:03.059Z,1007.51
2016-02-18T06:22:03.108Z,1007.51
2016-02-18T06:23:03.158Z,1007.51
2016-02-18T06:24:03.207Z,1007.49
2016-02-18T06:25:03.256Z,1007.49
2016-02-18T06:26:03.305Z,1007.53
2016-02-18T06:27:03.355Z,1007.5
2016-02-18T06:28:03.406Z,1007.53
2016-02-18T06:29:03.455Z,1007.56
2016-02-18T06:30:03.505Z,1007.57
2016-02-18T06:31:03.554Z,1007.58
2016-02-18T06:32:03.604Z,1007.56
2016-02-18T06:33:03.652Z,1007.57
2016-02-18T06:34:03.703Z,1007.58
2016-02-18T06:35:03.752Z,1007.58
2016-02-18T06:36:03.802Z,1007.57
2016-02-18T06:37:03.852Z,1007.58
2016-02-18T06:38:03.902Z,1007.62
2016-02-18T06:39:03.951Z,1007.63
2016-02-18T06:40:04.001Z,1007.64
2016-02-18T06:41:04.050Z,1007.67
2016-02-18T06:42:04.099Z,1007.67
2016-02-18T06:43:04.149Z,1007.67
2016-02-18T06:44:04.198Z,1007.72
2016-02-18T06:45:04.248Z,1007.71
2016-02-18T06:46:04.297Z,1007.73
2016-02-18T06:47:04.348Z,1007.72
2016-02-18T06:48:04.397Z,1007.72
2016-02-18T06:49:04.446Z,1007.71
2016-02-18T06:50:04.480Z,1007.76
2016-02-18T06:51:04.545Z,1007.76
2016-02-18T06:52:04.579Z,1007.77
2016-02-18T06:53:04.644Z,1007.76
2016-02-18T06:54:04.694Z,1007.77
2016-02-18T06:55:04.728Z,1007.79
2016-02-18T06:56:04.794Z,1007.79
2016-02-18T06:57:04.858Z,1007.8
2016-02-18T06:58:04.877Z,1007.83
2016-02-18T06:59:04.927Z,1007.81
2016-02-18T07:00:04.991Z,1007.84
2016-02-18T07:01:05.025Z,1007.82
2016-02-18T07:02:05.074Z,1007.84
2016-02-18T07:03:05.125Z,1007.85
2016-02-18T07:04:05.174Z,1007.86
2016-02-18T07:05:05.224Z,1007.85
2016-02-18T07:06:05.273Z,1007.91
2016-02-18T07:07:05.323Z,1007.88
2016-02-18T07:08:05.372Z,1007.91
2016-02-18T07:09:05.421Z,1007.94
2016-02-18T07:10:05.471Z,1007.93
2016-02-18T07:11:05.521Z,1007.9
2016-02-18T07:12:05.571Z,1007.93
2016-02-18T07:13:05.620Z,1007.95
2016-02-18T07:14:05.670Z,1007.94
2016-02-18T07:15:05.720Z,1007.98
2016-02-18T07:16:05.768Z,1007.97
2016-02-18T07:17:05.818Z,1007.94
2016-02-18T07:18:05.867Z,1007.96
2016-02-18T07:19:05.917Z,1007.99
2016-02-18T07:20:05.967Z,1007.93
2016-02-18T07:21:06.016Z,1007.99
2016-02-18T07:22:06.051Z,1008.03
2016-02-18T07:23:06.116Z,1008.03
2016-02-18T07:24:06.165Z,1008.02
2016-02-18T07:25:06.200Z,1008.03
2016-02-18T07:26:06.249Z,1008.04
2016-02-18T07:27:06.298Z,1008.06
2016-02-18T07:28:06.347Z,1008.06
2016-02-18T07:29:06.397Z,1008.08
2016-02-18T07:30:06.447Z,1008.07
2016-02-18T07:31:06.496Z,1008.11
2016-02-18T07:32:06.561Z,1008.13
2016-02-18T07:33:06.596Z,1008.13
2016-02-18T07:34:06.645Z,1008.13
2016-02-18T07:35:06.710Z,1008.16
2016-02-18T07:36:06.744Z,1008.19
2016-02-18T07:37:06.793Z,1008.14
2016-02-18T07:38:06.844Z,1008.17
2016-02-18T07:39:06.893Z,1008.13
2016-02-18T07:40:06.943Z,1008.16
2016-02-18T07:41:06.993Z,1008.19
2016-02-18T07:42:07.042Z,1008.19
2016-02-18T07:43:07.091Z,1008.17
2016-02-18T07:44:07.141Z,1008.15
2016-02-18T07:45:07.190Z,1008.21
2016-02-18T07:46:07.240Z,1008.24
2016-02-18T07:47:07.289Z,1008.24
2016-02-18T07:48:07.339Z,1008.24
2016-02-18T07:49:07.390Z,1008.29
2016-02-18T07:50:07.439Z,1008.28
2016-02-18T07:51:07.488Z,1008.32
2016-02-18T07:52:07.537Z,1008.31
2016-02-18T07:53:07.587Z,1008.31
2016-02-18T07:54:07.620Z,1008.34
2016-02-18T07:55:07.686Z,1008.33
2016-02-18T07:56:07.735Z,1008.3
2016-02-18T07:57:07.770Z,1008.34
2016-02-18T07:58:07.836Z,1008.33
2016-02-18T07:59:07.869Z,1008.36
2016-02-18T08:00:07.919Z,1008.37
2016-02-18T08:01:07.968Z,1008.35
2016-02-18T08:02:08.017Z,1008.41
2016-02-18T08:03:08.066Z,1008.34
2016-02-18T08:04:08.116Z,1008.38
2016-02-18T08:05:08.167Z,1008.31
2016-02-18T08:06:08.215Z,1008.33
2016-02-18T08:07:08.265Z,1008.35
2016-02-18T08:08:08.316Z,1008.32
2016-02-18T08:09:08.365Z,1008.34
2016-02-18T08:10:08.399Z,1008.36
2016-02-18T08:11:08.448Z,1008.37
2016-02-18T08:12:08.498Z,1008.34
2016-02-18T08:13:08.546Z,1008.34
2016-02-18T08:14:08.596Z,1008.35
2016-02-18T08:15:08.646Z,1008.35
2016-02-18T08:16:08.696Z,1008.33
2016-02-18T08:17:08.745Z,1008.36
2016-02-18T08:18:08.795Z,1008.44
2016-02-18T08:19:08.845Z,1008.43
2016-02-18T08:20:08.879Z,1008.48
2016-02-18T08:21:08.928Z,1008.43
2016-02-18T08:22:08.978Z,1008.43
2016-02-18T08:23:09.028Z,1008.46
2016-02-18T08:24:09.076Z,1008.45
2016-02-18T08:25:09.125Z,1008.43
2016-02-18T08:26:09.191Z,1008.43
2016-02-18T08:27:09.225Z,1008.41
2016-02-18T08:28:09.259Z,1008.4
2016-02-18T08:29:09.324Z,1008.39
2016-02-18T08:30:09.359Z,1008.44
2016-02-18T08:31:09.408Z,1008.43
2016-02-18T08:32:09.473Z,1008.45
2016-02-18T08:33:09.508Z,1008.41
2016-02-18T08:34:09.557Z,1008.39
2016-02-18T08:35:09.606Z,1008.41
2016-02-18T08:36:09.641Z,1008.36
2016-02-18T08:37:09.705Z,1008.37
2016-02-18T08:38:09.739Z,1008.34
2016-02-18T08:39:09.788Z,1008.37
2016-02-18T08:40:09.838Z,1008.36
2016-02-18T08:41:09.888Z,1008.36
2016-02-18T08:42:09.937Z,1008.41
2016-02-18T08:43:09.987Z,1008.39
2016-02-18T08:44:10.037Z,1008.39
2016-02-18T08:45:10.071Z,1008.38
2016-02-18T08:46:10.121Z,1008.36
2016-02-18T08:47:10.170Z,1008.39
2016-02-18T08:48:10.220Z,1008.4
2016-02-18T08:49:10.268Z,1008.39
2016-02-18T08:50:10.318Z,1008.36
2016-02-18T08:51:10.368Z,1008.37
2016-02-18T08:52:10.417Z,1008.39
2016-02-18T08:53:10.467Z,1008.38
2016-02-18T08:54:10.500Z,1008.39
2016-02-18T08:55:10.550Z,1008.4
2016-02-18T08:56:10.601Z,1008.35
2016-02-18T08:57:10.650Z,1008.38
2016-02-18T08:58:10.700Z,1008.35
2016-02-18T08:59:10.750Z,1008.32
2016-02-18T09:00:10.798Z,1008.35
2016-02-18T09:01:10.848Z,1008.32
2016-02-18T09:02:10.898Z,1008.35
2016-02-18T09:03:10.931Z,1008.33
2016-02-18T09:04:10.981Z,1008.32
2016-02-18T09:05:11.030Z,1008.33
2016-02-18T09:06:11.081Z,1008.32
2016-02-18T09:07:11.130Z,1008.39
2016-02-18T09:08:11.180Z,1008.38
2016-02-18T09:09:11.230Z,1008.34
2016-02-18T09:10:11.279Z,1008.41
2016-02-18T09:11:11.327Z,1008.38
2016-02-18T09:12:11.377Z,1008.36
2016-02-18T09:13:11.427Z,1008.36
2016-02-18T09:14:11.461Z,1008.35
2016-02-18T09:15:11.510Z,1008.38
2016-02-18T09:16:11.560Z,1008.41
2016-02-18T09:17:11.610Z,1008.39
2016-02-18T09:18:11.660Z,1008.41
2016-02-18T09:19:11.709Z,1008.4
2016-02-18T09:20:11.759Z,1008.44
2016-02-18T09:21:11.809Z,1008.4
2016-02-18T09:22:11.857Z,1008.43
2016-02-18T09:23:11.907Z,1008.45
2016-02-18T09:24:11.942Z,1008.43
2016-02-18T09:25:11.990Z,1008.53
2016-02-18T09:26:12.040Z,1008.46
2016-02-18T09:27:12.089Z,1008.41
2016-02-18T09:28:12.140Z,1008.43
2016-02-18T09:29:12.189Z,1008.43
2016-02-18T09:30:12.239Z,1008.38
2016-02-18T09:31:12.289Z,1008.4
2016-02-18T09:32:12.338Z,1008.39
2016-02-18T09:33:12.387Z,1008.38
2016-02-18T09:34:12.437Z,1008.44
2016-02-18T09:35:12.486Z,1008.4
2016-02-18T09:36:12.520Z,1008.38
2016-02-18T09:37:12.585Z,1008.4
2016-02-18T09:38:12.619Z,1008.36
2016-02-18T09:39:12.669Z,1008.37
2016-02-18T09:40:12.719Z,1008.34
2016-02-18T09:41:12.769Z,1008.37
2016-02-18T09:42:12.818Z,1008.36
2016-02-18T09:43:12.868Z,1008.37
2016-02-18T09:44:12.917Z,1008.36
2016-02-18T09:45:12.966Z,1008.37
2016-02-18T09:46:13.016Z,1008.39
2016-02-18T09:47:13.065Z,1008.38
2016-02-18T09:48:13.099Z,1008.37
2016-02-18T09:49:13.148Z,1008.48
2016-02-18T09:50:13.199Z,1008.37
2016-02-18T09:51:13.249Z,1008.37
2016-02-18T09:52:13.298Z,1008.33
2016-02-18T09:53:13.348Z,1008.36
2016-02-18T09:54:13.398Z,1008.36
2016-02-18T09:55:13.446Z,1008.38
2016-02-18T09:56:13.496Z,1008.35
2016-02-18T09:57:13.545Z,1008.34
2016-02-18T09:58:13.579Z,1008.35
2016-02-18T09:59:13.644Z,1008.36
2016-02-18T10:00:13.694Z,1008.37
2016-02-18T10:01:13.729Z,1008.38
2016-02-18T10:02:13.778Z,1008.4
2016-02-18T10:03:13.828Z,1008.4
2016-02-18T10:04:13.877Z,1008.38
2016-02-18T10:05:13.927Z,1008.36
2016-02-18T10:06:13.975Z,1008.39
2016-02-18T10:07:14.025Z,1008.36
2016-02-18T10:08:14.075Z,1008.38
2016-02-18T10:09:14.124Z,1008.35
2016-02-18T10:10:14.174Z,1008.32
2016-02-18T10:11:14.224Z,1008.34
2016-02-18T10:12:14.258Z,1008.34
2016-02-18T10:13:14.308Z,1008.36
2016-02-18T10:14:14.357Z,1008.36
2016-02-18T10:15:14.407Z,1008.36
2016-02-18T10:16:14.456Z,1008.39
2016-02-18T10:17:14.505Z,1008.38
2016-02-18T10:18:14.555Z,1008.38
2016-02-18T10:19:14.605Z,1008.38
2016-02-18T10:20:14.702Z,1008.39
2016-02-18T10:21:14.704Z,1008.43
2016-02-18T10:22:14.753Z,1008.4
2016-02-18T10:23:14.804Z,1008.34
2016-02-18T10:24:14.853Z,1008.38
2016-02-18T10:25:14.902Z,1008.35
2016-02-18T10:26:14.936Z,1008.31
2016-02-18T10:27:14.986Z,1008.35
2016-02-18T10:28:15.051Z,1008.36
2016-02-18T10:29:15.084Z,1008.33
2016-02-18T10:30:15.134Z,1008.33
2016-02-18T10:31:15.184Z,1008.34
2016-02-18T10:32:15.234Z,1008.36
2016-02-18T10:33:15.283Z,1008.35
2016-02-18T10:34:15.333Z,1008.35
2016-02-18T10:35:15.383Z,1008.33
2016-02-18T10:36:15.432Z,1008.42
2016-02-18T10:37:15.466Z,1008.37
2016-02-18T10:38:15.531Z,1008.43
2016-02-18T10:39:15.580Z,1008.43
2016-02-18T10:40:15.614Z,1008.44
2016-02-18T10:41:15.663Z,1008.45
2016-02-18T10:42:15.714Z,1008.47
2016-02-18T10:43:15.763Z,1008.47
2016-02-18T10:44:15.828Z,1008.44
2016-02-18T10:45:15.863Z,1008.47
2016-02-18T10:46:15.912Z,1008.51
2016-02-18T10:47:15.961Z,1008.48
2016-02-18T10:48:16.010Z,1008.44
2016-02-18T10:49:16.060Z,1008.49
2016-02-18T10:50:16.110Z,1008.51
2016-02-18T10:51:16.159Z,1008.51
2016-02-18T10:52:16.209Z,1008.51
2016-02-18T10:53:16.259Z,1008.5
2016-02-18T10:54:16.293Z,1008.48
2016-02-18T10:55:16.343Z,1008.51
2016-02-18T10:56:16.392Z,1008.53
2016-02-18T10:57:16.442Z,1008.52
2016-02-18T10:58:16.490Z,1008.49
2016-02-18T10:59:16.540Z,1008.49
2016-02-18T11:00:16.589Z,1008.48
2016-02-18T11:01:16.640Z,1008.51
2016-02-18T11:02:16.690Z,1008.5
2016-02-18T11:03:16.739Z,1008.45
2016-02-18T11:04:16.789Z,1008.51
2016-02-18T11:05:16.839Z,1008.49
2016-02-18T11:06:16.903Z,1008.46
2016-02-18T11:07:16.937Z,1008.51
2016-02-18T11:08:16.977Z,1008.46
2016-02-18T11:09:17.015Z,1008.45
2016-02-18T11:10:17.036Z,1008.47
2016-02-18T11:11:17.090Z,1008.45
2016-02-18T11:12:17.129Z,1008.47
2016-02-18T11:13:17.156Z,1008.43
2016-02-18T11:14:17.202Z,1008.44
2016-02-18T11:15:17.247Z,1008.43
2016-02-18T11:16:17.292Z,1008.44
2016-02-18T11:17:17.337Z,1008.44
2016-02-18T11:18:17.385Z,1008.39
2016-02-18T11:19:17.432Z,1008.43
2016-02-18T11:20:17.480Z,1008.39
2016-02-18T11:21:17.529Z,1008.37
2016-02-18T11:22:17.577Z,1008.41
2016-02-18T11:23:17.626Z,1008.42
2016-02-18T11:24:17.674Z,1008.4
2016-02-18T11:25:17.722Z,1008.39
2016-02-18T11:26:17.772Z,1008.41
2016-02-18T11:27:17.820Z,1008.39
2016-02-18T11:28:17.870Z,1008.43
2016-02-18T11:29:17.919Z,1008.46
2016-02-18T11:30:17.968Z,1008.41
2016-02-18T11:31:18.018Z,1008.4
2016-02-18T11:32:18.067Z,1008.38
2016-02-18T11:33:18.116Z,1008.4
2016-02-18T11:34:18.165Z,1008.39
2016-02-18T11:35:18.215Z,1008.44
2016-02-18T11:36:18.248Z,1008.49
2016-02-18T11:37:18.298Z,1008.41
2016-02-18T11:38:18.348Z,1008.39
2016-02-18T11:39:18.414Z,1008.4
2016-02-18T11:40:18.448Z,1008.41
2016-02-18T11:41:18.497Z,1008.39
2016-02-18T11:42:18.547Z,1008.42
2016-02-18T11:43:18.596Z,1008.38
2016-02-18T11:44:18.645Z,1008.4
2016-02-18T11:45:18.695Z,1008.33
2016-02-18T11:46:18.744Z,1008.31
2016-02-18T11:47:18.795Z,1008.31
2016-02-18T11:48:18.844Z,1008.34
2016-02-18T11:49:18.893Z,1008.32
2016-02-18T11:50:18.944Z,1008.32
2016-02-18T11:51:18.993Z,1008.31
2016-02-18T11:52:19.042Z,1008.32
2016-02-18T11:53:19.076Z,1008.3
2016-02-18T11:54:19.141Z,1008.3
2016-02-18T11:55:19.207Z,1008.28
2016-02-18T11:56:19.224Z,1008.27
2016-02-18T11:57:19.321Z,1008.3
2016-02-18T11:58:19.340Z,1008.33
2016-02-18T11:59:19.374Z,1008.31
2016-02-18T12:00:19.423Z,1008.34
2016-02-18T12:01:19.473Z,1008.34
2016-02-18T12:02:19.522Z,1008.34
2016-02-18T12:03:19.571Z,1008.35
2016-02-18T12:04:19.621Z,1008.34
2016-02-18T12:05:19.670Z,1008.29
2016-02-18T12:06:19.721Z,1008.3
2016-02-18T12:07:19.786Z,1008.33
2016-02-18T12:08:19.820Z,1008.32